Time;durP1;ratioP1;P1;durP2;ratioP2;P2;SDS_P1;SDS_P2;PMS_P1;PMS_P2;Temp;Humidity;BMP_temperature;BMP_pressure;BME280_temperature;BME280_humidity;BME280_pressure;Samples;Min_cycle;Max_cycle;Signal;HPM_P1;HPM_P2
2022/05/09 00:01:04;;;;;;;10.38;9.38;;;13.50;99.90;;;;;;5059475;28;20186;-60
2022/05/09 00:03:30;;;;;;;10.88;9.88;;;13.40;99.90;;;;;;5059058;28;20255;-60
2022/05/09 00:05:55;;;;;;;10.43;9.43;;;13.30;99.90;;;;;;5058540;28;20300;-60
2022/05/09 00:08:21;;;;;;;10.27;9.27;;;13.40;99.90;;;;;;5056688;28;20438;-62
2022/05/09 00:10:47;;;;;;;10.27;9.40;;;13.40;99.90;;;;;;5059452;28;21551;-60
2022/05/09 00:13:13;;;;;;;10.90;9.90;;;13.40;99.90;;;;;;5054422;28;20173;-60
2022/05/09 00:15:38;;;;;;;9.20;8.40;;;13.20;99.90;;;;;;5061127;28;21979;-62
2022/05/09 00:18:04;;;;;;;9.47;8.77;;;13.50;99.90;;;;;;5044578;28;20440;-60
2022/05/09 00:20:30;;;;;;;9.80;8.90;;;13.20;99.90;;;;;;5057167;28;20464;-65
2022/05/09 00:22:55;;;;;;;9.67;8.77;;;13.40;99.90;;;;;;5059607;28;20200;-65
2022/05/09 00:25:25;;;;;;;9.00;8.10;;;13.30;99.90;;;;;;5057763;28;20204;-60
2022/05/09 00:27:51;;;;;;;9.25;8.45;;;13.40;99.90;;;;;;5057847;28;20213;-60
2022/05/09 00:30:18;;;;;;;10.35;9.45;;;13.30;99.90;;;;;;5051741;28;20577;-63
2022/05/09 00:32:44;;;;;;;10.00;9.10;;;13.30;99.90;;;;;;5040389;28;20180;-61
2022/05/09 00:35:11;;;;;;;10.43;9.55;;;13.20;99.90;;;;;;5056609;28;20197;-64
2022/05/09 00:37:37;;;;;;;10.05;9.00;;;13.20;99.90;;;;;;5056511;28;20184;-62
2022/05/09 00:40:08;;;;;;;9.63;8.85;;;13.30;99.90;;;;;;5050341;28;20186;-61
2022/05/09 00:42:34;;;;;;;9.50;8.70;;;13.10;99.90;;;;;;5056206;28;20173;-60
2022/05/09 00:45:01;;;;;;;9.77;8.98;;;12.70;99.90;;;;;;5051111;28;20245;-60
2022/05/09 00:47:27;;;;;;;10.23;9.25;;;12.50;99.90;;;;;;5055014;28;20194;-60
2022/05/09 00:50:00;;;;;;;9.80;8.90;;;12.90;99.90;;;;;;5057938;28;20220;-60
2022/05/09 00:52:26;;;;;;;10.15;9.25;;;12.80;99.90;;;;;;5055172;28;20215;-61
2022/05/09 00:55:24;;;;;;;10.83;9.73;;;13.00;99.90;;;;;;5061767;28;20225;-59
2022/05/09 00:58:02;;;;;;;10.38;9.35;;;12.60;99.90;;;;;;5051005;28;20531;-59
2022/05/09 01:00:28;;;;;;;11.07;10.13;;;12.90;99.90;;;;;;5053856;28;20195;-59
2022/05/09 01:03:01;;;;;;;9.87;8.97;;;12.80;99.90;;;;;;5057893;28;20573;-59
2022/05/09 01:05:30;;;;;;;10.02;9.13;;;12.70;99.90;;;;;;5059228;28;20207;-60
2022/05/09 01:07:56;;;;;;;9.93;9.02;;;13.00;99.90;;;;;;5062345;28;20197;-60
2022/05/09 01:10:27;;;;;;;10.30;9.40;;;12.60;99.90;;;;;;5061832;28;20242;-59
2022/05/09 01:12:53;;;;;;;9.63;8.75;;;12.70;99.90;;;;;;5055224;28;20181;-59
2022/05/09 01:15:18;;;;;;;10.23;9.13;;;12.80;99.90;;;;;;5059843;28;20215;-59
2022/05/09 01:17:47;;;;;;;10.10;9.20;;;12.70;99.90;;;;;;5056621;28;20451;-59
2022/05/09 01:20:13;;;;;;;9.98;9.07;;;12.50;99.90;;;;;;5051375;28;20439;-60
2022/05/09 01:22:40;;;;;;;10.27;9.38;;;12.60;99.90;;;;;;5056623;28;20197;-59
2022/05/09 01:25:09;;;;;;;9.55;8.75;;;12.60;99.90;;;;;;5055574;28;20217;-58
2022/05/09 01:27:38;;;;;;;10.45;9.55;;;12.50;99.90;;;;;;5045459;28;20465;-59
2022/05/09 01:30:19;;;;;;;10.30;9.35;;;12.70;99.90;;;;;;5057367;28;20210;-59
2022/05/09 01:32:52;;;;;;;9.70;8.80;;;12.60;99.90;;;;;;5056149;28;20180;-60
2022/05/09 01:35:34;;;;;;;10.57;9.68;;;12.50;99.90;;;;;;5052306;28;20826;-59
2022/05/09 01:38:16;;;;;;;12.95;10.10;;;12.50;99.90;;;;;;5053291;28;20192;-60
2022/05/09 01:40:42;;;;;;;11.07;10.10;;;12.40;99.90;;;;;;5053033;28;20189;-58
2022/05/09 01:43:08;;;;;;;10.10;9.20;;;12.50;99.90;;;;;;5074084;28;20198;-60
2022/05/09 01:45:35;;;;;;;10.45;9.55;;;12.60;99.90;;;;;;5051548;28;20718;-58
2022/05/09 01:50:45;;;;;;;10.13;9.23;;;12.40;99.90;;;;;;5061260;28;20217;-58
2022/05/09 01:53:11;;;;;;;11.00;10.00;;;12.30;99.90;;;;;;5059563;28;20172;-59
2022/05/09 01:55:37;;;;;;;11.10;9.40;;;12.40;99.90;;;;;;5064865;28;20210;-58
2022/05/09 01:58:04;;;;;;;10.20;9.30;;;12.50;99.90;;;;;;5049741;28;20608;-58
2022/05/09 02:00:32;;;;;;;11.30;9.82;;;12.30;99.90;;;;;;5063939;28;20214;-58
2022/05/09 02:02:59;;;;;;;11.00;9.98;;;12.20;99.90;;;;;;5060111;28;20276;-59
2022/05/09 02:05:26;;;;;;;11.20;10.23;;;12.30;99.90;;;;;;5063270;28;20268;-58
2022/05/09 02:07:52;;;;;;;11.32;10.32;;;12.30;99.90;;;;;;5056579;28;20228;-58
2022/05/09 02:10:18;;;;;;;10.60;9.63;;;11.90;99.90;;;;;;5063322;28;20763;-58
2022/05/09 02:12:44;;;;;;;11.00;10.00;;;12.10;99.90;;;;;;5058637;28;20185;-59
2022/05/09 02:15:09;;;;;;;10.33;9.40;;;12.20;99.90;;;;;;5060824;28;20199;-59
2022/05/09 02:17:37;;;;;;;11.50;10.50;;;12.40;99.90;;;;;;5044201;28;20196;-58
2022/05/09 02:20:03;;;;;;;10.18;9.25;;;12.10;99.90;;;;;;5065989;28;20192;-59
2022/05/09 02:22:29;;;;;;;10.88;9.77;;;12.10;99.90;;;;;;5060434;28;20262;-58
2022/05/09 02:24:55;;;;;;;11.83;10.70;;;12.20;99.90;;;;;;5052067;28;20243;-59
2022/05/09 02:27:22;;;;;;;10.53;9.63;;;12.00;99.90;;;;;;5051308;28;20469;-58
2022/05/09 02:29:47;;;;;;;10.45;9.55;;;12.00;99.90;;;;;;5065235;28;20209;-58
2022/05/09 02:32:15;;;;;;;10.53;9.63;;;12.10;99.90;;;;;;5060011;28;20209;-58
2022/05/09 02:34:40;;;;;;;10.70;9.73;;;11.90;99.90;;;;;;5049933;28;20216;-60
2022/05/09 02:37:06;;;;;;;10.47;9.57;;;12.10;99.90;;;;;;5053458;28;20180;-59
2022/05/09 02:39:32;;;;;;;10.80;9.90;;;11.80;99.90;;;;;;5063081;28;20210;-59
2022/05/09 02:41:59;;;;;;;10.27;9.37;;;11.70;99.90;;;;;;5050978;28;20664;-61
2022/05/09 02:44:26;;;;;;;10.45;9.48;;;11.90;99.90;;;;;;5055016;28;20213;-60
2022/05/09 02:46:51;;;;;;;10.50;9.60;;;11.70;99.90;;;;;;5057695;28;20569;-60
2022/05/09 02:49:18;;;;;;;9.90;9.00;;;11.70;99.90;;;;;;5054720;28;20204;-60
2022/05/09 02:51:44;;;;;;;11.18;10.20;;;11.70;99.90;;;;;;5058578;28;20226;-60
2022/05/09 02:54:10;;;;;;;11.10;10.07;;;11.90;99.90;;;;;;5067642;28;20179;-62
2022/05/09 02:56:35;;;;;;;10.03;9.23;;;11.70;99.90;;;;;;5057806;28;20678;-59
2022/05/09 02:59:01;;;;;;;11.10;10.10;;;11.70;99.90;;;;;;5064136;28;20183;-62
2022/05/09 03:01:27;;;;;;;11.53;10.37;;;11.90;99.90;;;;;;5060119;28;20191;-62
2022/05/09 03:06:37;;;;;;;11.05;10.00;;;11.70;99.90;;;;;;5052491;28;20243;-60
2022/05/09 03:09:03;;;;;;;11.73;10.60;;;11.50;99.90;;;;;;5063107;28;20217;-59
2022/05/09 03:11:28;;;;;;;14.30;11.23;;;11.60;99.90;;;;;;5056394;28;20181;-59
2022/05/09 03:13:54;;;;;;;11.00;9.80;;;11.50;99.90;;;;;;5060023;28;20187;-61
2022/05/09 03:16:20;;;;;;;10.30;9.30;;;11.50;99.90;;;;;;5055859;28;20199;-63
2022/05/09 03:18:45;;;;;;;11.90;10.87;;;11.40;99.90;;;;;;5052024;28;20201;-60
2022/05/09 03:21:11;;;;;;;13.27;10.87;;;11.70;99.90;;;;;;5057872;28;20182;-60
2022/05/09 03:23:37;;;;;;;11.53;10.53;;;11.50;99.90;;;;;;5062569;28;20179;-63
2022/05/09 03:26:03;;;;;;;10.40;9.40;;;11.70;99.90;;;;;;5053387;28;20203;-65
2022/05/09 03:28:29;;;;;;;11.03;10.03;;;11.40;99.90;;;;;;5051627;28;20446;-62
2022/05/09 03:30:57;;;;;;;11.90;10.90;;;11.60;99.90;;;;;;5062958;28;20445;-59
2022/05/09 03:33:27;;;;;;;10.95;9.95;;;11.60;99.90;;;;;;5053327;28;20528;-63
2022/05/09 03:35:53;;;;;;;10.90;9.93;;;11.60;99.90;;;;;;5060583;28;20585;-62
2022/05/09 03:38:19;;;;;;;11.98;10.88;;;11.50;99.90;;;;;;5056763;28;20179;-61
2022/05/09 03:40:45;;;;;;;11.43;10.32;;;11.60;99.90;;;;;;5058225;28;20675;-63
2022/05/09 03:43:12;;;;;;;12.93;11.73;;;11.40;99.90;;;;;;5061568;28;20188;-59
2022/05/09 03:45:40;;;;;;;12.15;10.88;;;11.40;99.90;;;;;;5057787;28;20477;-63
2022/05/09 03:48:06;;;;;;;11.68;10.60;;;11.20;99.90;;;;;;5056368;28;20201;-65
2022/05/09 03:50:32;;;;;;;11.25;10.20;;;11.60;99.90;;;;;;5056647;28;20198;-60
2022/05/09 03:52:58;;;;;;;11.17;10.17;;;11.50;99.90;;;;;;5057410;28;20190;-61
2022/05/09 03:55:23;;;;;;;13.40;11.07;;;11.40;99.90;;;;;;5057988;28;20453;-62
2022/05/09 03:57:51;;;;;;;11.97;10.73;;;11.40;99.90;;;;;;5044078;28;20412;-60
2022/05/09 04:00:21;;;;;;;12.00;10.82;;;11.10;99.90;;;;;;5049935;28;20208;-60
2022/05/09 04:02:46;;;;;;;11.55;10.43;;;11.40;99.90;;;;;;5055810;28;20202;-64
2022/05/09 04:05:16;;;;;;;11.43;10.43;;;11.30;99.90;;;;;;5052107;28;20579;-62
2022/05/09 04:07:47;;;;;;;12.15;11.05;;;11.30;99.90;;;;;;5053993;28;20176;-60
2022/05/09 04:10:16;;;;;;;12.80;11.50;;;11.30;99.90;;;;;;5054418;28;20204;-65
2022/05/09 04:12:42;;;;;;;11.98;10.85;;;11.20;99.90;;;;;;5053187;28;20718;-60
2022/05/09 04:17:54;;;;;;;11.93;10.80;;;11.30;99.90;;;;;;5046704;28;20202;-63
2022/05/09 04:20:22;;;;;;;12.10;11.00;;;11.40;99.90;;;;;;5046585;28;20240;-63
2022/05/09 04:22:48;;;;;;;11.77;10.57;;;11.40;99.90;;;;;;5043896;28;20190;-63
2022/05/09 04:25:15;;;;;;;12.80;11.30;;;11.40;99.90;;;;;;5051510;28;20218;-64
2022/05/09 04:27:41;;;;;;;12.48;11.23;;;11.30;99.90;;;;;;5047970;28;20183;-63
2022/05/09 04:30:09;;;;;;;12.23;11.07;;;11.40;99.90;;;;;;5049638;28;20219;-61
2022/05/09 04:32:35;;;;;;;11.73;10.63;;;11.50;99.90;;;;;;5050006;28;20261;-63
2022/05/09 04:35:01;;;;;;;12.60;11.40;;;11.40;99.90;;;;;;5048822;28;20203;-62
2022/05/09 04:37:26;;;;;;;12.30;11.20;;;11.50;99.90;;;;;;5047617;28;20184;-62
2022/05/09 04:39:54;;;;;;;12.33;11.03;;;11.50;99.90;;;;;;5050413;28;20477;-61
2022/05/09 04:42:20;;;;;;;13.73;10.95;;;11.20;99.90;;;;;;5049323;28;20238;-62
2022/05/09 04:44:46;;;;;;;12.00;10.90;;;11.60;99.90;;;;;;5049955;28;20220;-62
2022/05/09 04:47:13;;;;;;;12.65;11.40;;;11.40;99.90;;;;;;5048303;28;20269;-61
2022/05/09 04:49:39;;;;;;;12.07;11.02;;;11.60;99.90;;;;;;5044562;28;20265;-62
2022/05/09 04:52:06;;;;;;;12.13;10.93;;;11.50;99.90;;;;;;5053299;28;20684;-62
2022/05/09 04:54:31;;;;;;;12.85;11.65;;;11.50;99.90;;;;;;5058612;28;20211;-62
2022/05/09 04:56:57;;;;;;;12.33;11.13;;;11.80;99.90;;;;;;5048367;28;20235;-62
2022/05/09 04:59:22;;;;;;;12.17;11.07;;;12.10;99.90;;;;;;5058894;28;20191;-62
2022/05/09 05:01:49;;;;;;;13.00;11.73;;;11.50;99.90;;;;;;5052141;28;20212;-62
2022/05/09 05:04:16;;;;;;;12.43;11.23;;;11.70;99.90;;;;;;5046818;28;20751;-61
2022/05/09 05:06:41;;;;;;;13.40;12.10;;;11.70;99.90;;;;;;5047192;28;20237;-62
2022/05/09 05:09:07;;;;;;;13.13;11.90;;;11.70;99.90;;;;;;5059739;28;20200;-62
2022/05/09 05:11:33;;;;;;;12.47;11.17;;;11.90;99.90;;;;;;5046533;28;20191;-62
2022/05/09 05:13:58;;;;;;;13.07;11.87;;;12.00;99.90;;;;;;5051114;28;20584;-63
2022/05/09 05:16:59;;;;;;;13.53;12.00;;;12.10;99.90;;;;;;5050734;28;20617;-61
2022/05/09 05:19:09;;;;;;;12.18;10.98;;;12.00;99.90;;;;;;5045983;28;20183;-61
2022/05/09 05:21:35;;;;;;;12.80;11.60;;;12.10;99.90;;;;;;5044186;28;20646;-62
2022/05/09 05:24:01;;;;;;;12.80;11.47;;;12.20;99.90;;;;;;5055833;28;20190;-62
2022/05/09 05:26:26;;;;;;;14.90;13.50;;;12.40;99.90;;;;;;5049238;28;20264;-62
2022/05/09 05:28:52;;;;;;;13.93;12.53;;;12.60;99.90;;;;;;5051470;28;20478;-62
2022/05/09 05:31:19;;;;;;;12.87;11.67;;;12.70;99.90;;;;;;5054230;28;20246;-62
2022/05/09 05:33:45;;;;;;;14.70;13.30;;;12.90;99.90;;;;;;5048602;28;20208;-62
2022/05/09 05:36:12;;;;;;;12.70;11.50;;;12.90;99.90;;;;;;5047366;28;20311;-62
2022/05/09 05:38:39;;;;;;;14.95;12.85;;;13.00;99.90;;;;;;5044774;28;20283;-63
2022/05/09 05:41:05;;;;;;;13.57;12.27;;;13.30;99.90;;;;;;5051235;28;20192;-63
2022/05/09 05:43:35;;;;;;;12.80;11.50;;;13.40;99.90;;;;;;5045625;28;20198;-63
2022/05/09 05:46:02;;;;;;;13.88;12.48;;;13.50;99.90;;;;;;5053316;28;20467;-63
2022/05/09 05:48:30;;;;;;;13.63;12.43;;;14.10;99.90;;;;;;5059882;28;20180;-63
2022/05/09 05:50:55;;;;;;;12.88;11.68;;;14.20;99.90;;;;;;5060685;28;20209;-62
2022/05/09 05:53:21;;;;;;;14.00;12.60;;;14.40;99.90;;;;;;5060508;28;20637;-63
2022/05/09 05:55:47;;;;;;;14.27;12.80;;;14.50;99.90;;;;;;5058831;28;20196;-61
2022/05/09 05:58:12;;;;;;;13.17;11.97;;;15.00;99.90;;;;;;5057589;28;20182;-62
2022/05/09 06:00:38;;;;;;;15.10;13.23;;;15.10;99.90;;;;;;5049979;28;20174;-62
2022/05/09 06:03:06;;;;;;;14.80;13.30;;;15.20;99.90;;;;;;5055946;28;20948;-62
2022/05/09 06:05:31;;;;;;;12.93;11.77;;;15.60;99.90;;;;;;5064839;28;20203;-62
2022/05/09 06:07:57;;;;;;;14.13;12.73;;;15.60;99.90;;;;;;5055033;28;20689;-61
2022/05/09 06:10:23;;;;;;;16.10;12.37;;;15.70;99.90;;;;;;5063012;28;20200;-63
2022/05/09 06:12:49;;;;;;;14.40;12.97;;;15.80;99.90;;;;;;5052456;28;20200;-62
2022/05/09 06:15:25;;;;;;;15.77;14.47;;;15.70;99.90;;;;;;5060233;28;20951;-63
2022/05/09 06:17:51;;;;;;;15.73;14.18;;;16.00;99.90;;;;;;5060751;28;20443;-63
2022/05/09 06:20:18;;;;;;;15.13;13.80;;;16.00;99.90;;;;;;5060161;28;20181;-63
2022/05/09 06:22:44;;;;;;;14.80;13.40;;;16.20;99.90;;;;;;5061191;28;20205;-63
2022/05/09 06:25:13;;;;;;;14.73;13.53;;;15.90;99.90;;;;;;5062501;28;20852;-63
2022/05/09 06:27:39;;;;;;;15.25;13.85;;;15.80;99.90;;;;;;5056815;28;20468;-63
2022/05/09 06:30:07;;;;;;;13.80;12.55;;;16.20;99.90;;;;;;5076635;28;20225;-63
2022/05/09 06:32:33;;;;;;;14.55;13.30;;;16.30;99.90;;;;;;5057406;28;20192;-62
2022/05/09 06:35:05;;;;;;;13.80;12.60;;;16.30;99.90;;;;;;5060988;28;20198;-63
2022/05/09 06:37:33;;;;;;;17.10;13.13;;;16.60;99.90;;;;;;5064667;28;20641;-63
2022/05/09 06:39:59;;;;;;;13.18;12.07;;;16.60;99.90;;;;;;5059210;28;20272;-64
2022/05/09 06:42:27;;;;;;;13.88;12.48;;;17.10;99.90;;;;;;5061656;28;20873;-63
2022/05/09 06:44:53;;;;;;;13.63;12.43;;;17.20;99.90;;;;;;5056026;28;20367;-63
2022/05/09 06:47:19;;;;;;;14.63;13.43;;;17.30;99.90;;;;;;5062223;28;20257;-63
2022/05/09 06:49:44;;;;;;;13.00;11.90;;;17.70;99.90;;;;;;5058640;28;20679;-63
2022/05/09 06:52:10;;;;;;;14.00;12.70;;;19.10;99.90;;;;;;5062759;28;20590;-63
2022/05/09 06:54:36;;;;;;;13.03;11.77;;;21.00;96.50;;;;;;5063707;28;20219;-63
2022/05/09 06:57:02;;;;;;;11.50;10.60;;;22.40;93.00;;;;;;5055748;28;20182;-63
2022/05/09 06:59:27;;;;;;;11.23;10.23;;;23.20;90.20;;;;;;5061227;28;20185;-63
2022/05/09 07:01:53;;;;;;;11.80;10.80;;;23.40;89.30;;;;;;5059868;28;20231;-63
2022/05/09 07:04:19;;;;;;;12.73;11.63;;;23.80;87.20;;;;;;5059872;28;20554;-63
2022/05/09 07:06:44;;;;;;;10.80;9.90;;;24.40;85.60;;;;;;5059823;28;20182;-62
2022/05/09 07:09:11;;;;;;;9.87;9.00;;;26.30;80.10;;;;;;5068394;28;20228;-62
2022/05/09 07:11:38;;;;;;;11.23;10.40;;;27.20;74.70;;;;;;5058020;28;20428;-62
2022/05/09 07:14:04;;;;;;;11.23;10.23;;;28.50;67.20;;;;;;5061119;28;20826;-61
2022/05/09 07:16:30;;;;;;;10.63;9.80;;;27.40;66.60;;;;;;5063396;28;20426;-62
2022/05/09 07:18:56;;;;;;;11.43;10.43;;;28.70;66.40;;;;;;5055429;28;20251;-62
2022/05/09 07:21:22;;;;;;;9.93;9.20;;;31.10;60.00;;;;;;5054679;28;20421;-62
2022/05/09 07:23:47;;;;;;;9.00;8.30;;;31.20;56.40;;;;;;5052414;28;20521;-62
2022/05/09 07:26:13;;;;;;;11.53;10.60;;;32.10;55.40;;;;;;5056752;28;20197;-63
2022/05/09 07:28:40;;;;;;;10.40;9.67;;;32.00;53.90;;;;;;5052442;28;20717;-63
2022/05/09 07:31:06;;;;;;;9.43;8.80;;;32.60;51.80;;;;;;5059874;28;20215;-62
2022/05/09 07:33:32;;;;;;;9.40;8.70;;;32.50;52.20;;;;;;5060631;28;20962;-62
2022/05/09 07:35:58;;;;;;;10.30;9.60;;;31.40;52.90;;;;;;5056578;28;20220;-63
2022/05/09 07:38:24;;;;;;;9.57;8.87;;;32.30;52.10;;;;;;5054244;28;20419;-64
2022/05/09 07:40:49;;;;;;;9.50;8.80;;;33.90;50.10;;;;;;5054762;28;20653;-62
2022/05/09 07:43:19;;;;;;;9.37;8.57;;;33.50;49.80;;;;;;5060927;28;20435;-62
2022/05/09 07:45:47;;;;;;;9.73;9.03;;;33.10;49.50;;;;;;5053801;28;20956;-62
2022/05/09 07:48:13;;;;;;;10.10;9.50;;;33.60;48.30;;;;;;5047283;28;20447;-62
2022/05/09 07:50:40;;;;;;;9.60;8.90;;;32.90;49.80;;;;;;5057948;28;20455;-63
2022/05/09 07:53:13;;;;;;;9.60;8.80;;;33.70;47.20;;;;;;5058193;28;20797;-62
2022/05/09 07:55:40;;;;;;;9.37;8.57;;;33.30;48.00;;;;;;5057550;28;21020;-62
2022/05/09 07:58:07;;;;;;;9.20;8.30;;;34.30;47.00;;;;;;5053626;28;20439;-63
2022/05/09 08:00:33;;;;;;;8.60;7.90;;;35.50;45.20;;;;;;5055939;28;20554;-62
2022/05/09 08:02:58;;;;;;;8.63;7.80;;;34.90;44.30;;;;;;5057322;28;20439;-62
2022/05/09 08:05:24;;;;;;;9.77;8.87;;;35.20;44.30;;;;;;5058878;28;20197;-61
2022/05/09 08:07:49;;;;;;;10.30;9.30;;;34.20;45.10;;;;;;5063046;28;20600;-62
2022/05/09 08:10:16;;;;;;;9.23;8.53;;;35.10;44.20;;;;;;5056622;28;20202;-62
2022/05/09 08:12:43;;;;;;;9.43;8.63;;;34.00;44.70;;;;;;5052680;28;20186;-62
2022/05/09 08:15:11;;;;;;;9.33;8.53;;;34.60;45.10;;;;;;5059355;28;20527;-62
2022/05/09 08:17:37;;;;;;;10.87;10.07;;;35.80;43.50;;;;;;5068035;28;20444;-62
2022/05/09 08:20:03;;;;;;;11.40;9.67;;;33.40;44.00;;;;;;5053276;28;20436;-62
2022/05/09 08:22:31;;;;;;;10.17;9.33;;;33.30;46.40;;;;;;5054203;28;20510;-62
2022/05/09 08:25:01;;;;;;;9.60;8.90;;;34.10;45.20;;;;;;5056062;28;20463;-62
2022/05/09 08:27:27;;;;;;;8.50;7.80;;;35.40;43.60;;;;;;5048524;28;20443;-61
2022/05/09 08:29:57;;;;;;;8.40;7.70;;;36.20;42.50;;;;;;5056425;28;20875;-61
2022/05/09 08:32:27;;;;;;;8.60;8.00;;;35.40;42.90;;;;;;5057037;28;20217;-61
2022/05/09 08:34:53;;;;;;;14.57;9.00;;;36.10;42.00;;;;;;5055605;28;20479;-62
2022/05/09 08:37:20;;;;;;;8.87;8.27;;;35.60;41.60;;;;;;5063162;28;20527;-62
2022/05/09 08:39:46;;;;;;;8.40;7.90;;;34.40;42.90;;;;;;5063195;28;20432;-62
2022/05/09 08:42:18;;;;;;;8.83;8.13;;;34.20;44.10;;;;;;5057629;28;20424;-62
2022/05/09 08:45:02;;;;;;;10.40;9.53;;;34.60;42.70;;;;;;5053385;28;20470;-62
2022/05/09 08:47:58;;;;;;;9.13;8.43;;;34.80;43.10;;;;;;5052798;28;20464;-62
2022/05/09 08:50:41;;;;;;;11.23;9.30;;;35.60;41.90;;;;;;5042938;28;20471;-63
2022/05/09 08:53:11;;;;;;;8.40;7.90;;;33.90;42.70;;;;;;5054935;28;20438;-62
2022/05/09 08:55:45;;;;;;;10.43;9.53;;;34.40;43.10;;;;;;5059768;28;20460;-62
2022/05/09 08:58:39;;;;;;;8.60;8.00;;;32.00;45.10;;;;;;5053581;28;20435;-62
2022/05/09 09:01:19;;;;;;;8.43;7.63;;;33.00;45.30;;;;;;5059387;28;20956;-62
2022/05/09 09:03:55;;;;;;;10.50;9.80;;;34.20;43.70;;;;;;5056881;28;20431;-62
2022/05/09 09:06:42;;;;;;;8.73;7.93;;;32.70;44.90;;;;;;5052477;28;20545;-62
2022/05/09 09:09:38;;;;;;;8.47;7.67;;;32.70;45.60;;;;;;5059174;28;20542;-62
2022/05/09 09:12:14;;;;;;;8.17;7.47;;;34.40;44.10;;;;;;5055333;28;20440;-62
2022/05/09 09:14:42;;;;;;;8.37;7.77;;;34.90;43.10;;;;;;5062507;28;20457;-62
2022/05/09 09:17:17;;;;;;;8.90;8.10;;;34.10;41.90;;;;;;5064284;28;20422;-62
2022/05/09 09:19:51;;;;;;;8.23;7.37;;;35.50;42.10;;;;;;5050164;28;20534;-62
2022/05/09 09:22:32;;;;;;;8.30;7.27;;;34.80;42.10;;;;;;5049810;28;20931;-61
2022/05/09 09:25:16;;;;;;;8.17;7.43;;;34.00;43.20;;;;;;5060215;28;20850;-61
2022/05/09 09:27:55;;;;;;;8.03;7.43;;;34.80;42.20;;;;;;5059988;28;20495;-61
2022/05/09 09:30:23;;;;;;;8.70;8.00;;;33.70;43.40;;;;;;5058188;28;20466;-62
2022/05/09 09:33:03;;;;;;;7.97;7.43;;;33.60;43.50;;;;;;5060555;28;20932;-62
2022/05/09 09:35:40;;;;;;;8.77;7.97;;;32.70;45.30;;;;;;5059149;28;20484;-62
2022/05/09 09:38:25;;;;;;;10.17;9.37;;;32.60;45.10;;;;;;5055308;28;20435;-62
2022/05/09 09:40:51;;;;;;;8.17;7.57;;;31.30;45.50;;;;;;5050593;28;20451;-62
2022/05/09 09:43:17;;;;;;;11.00;10.20;;;31.40;47.40;;;;;;5065132;28;20431;-63
2022/05/09 09:46:00;;;;;;;9.00;8.23;;;32.20;46.30;;;;;;5056970;28;20610;-62
2022/05/09 09:48:26;;;;;;;8.43;7.90;;;32.10;46.60;;;;;;5052239;28;20446;-62
2022/05/09 09:50:54;;;;;;;8.10;7.60;;;32.30;46.30;;;;;;5060359;28;20959;-62
2022/05/09 09:53:45;;;;;;;7.83;7.23;;;32.60;45.70;;;;;;5058812;28;20184;-63
2022/05/09 09:56:23;;;;;;;9.93;9.23;;;32.40;46.00;;;;;;5066387;28;20955;-61
2022/05/09 09:58:52;;;;;;;8.30;7.70;;;33.00;45.00;;;;;;5049865;28;20436;-63
2022/05/09 10:01:22;;;;;;;8.57;7.77;;;31.60;46.60;;;;;;5062697;28;20451;-61
2022/05/09 10:04:10;;;;;;;8.83;8.10;;;30.80;48.20;;;;;;5054109;28;20962;-62
2022/05/09 10:07:02;;;;;;;9.07;8.27;;;29.70;49.50;;;;;;5056706;28;20752;-64
2022/05/09 10:09:34;;;;;;;8.97;8.27;;;28.20;52.40;;;;;;5058504;28;20451;-63
2022/05/09 10:12:26;;;;;;;10.10;9.20;;;26.70;54.20;;;;;;5052717;28;20516;-64
2022/05/09 10:14:52;;;;;;;9.80;9.10;;;26.70;55.70;;;;;;5058661;28;20821;-64
2022/05/09 10:17:18;;;;;;;9.40;8.67;;;26.20;56.80;;;;;;5060618;28;20431;-64
2022/05/09 10:19:44;;;;;;;8.30;7.70;;;26.00;57.20;;;;;;5056058;28;20451;-64
2022/05/09 10:25:10;;;;;;;7.60;7.10;;;25.80;58.00;;;;;;5061749;28;20508;-63
2022/05/09 10:27:37;;;;;;;9.80;8.80;;;25.90;57.10;;;;;;5051902;28;20454;-63
2022/05/09 10:30:18;;;;;;;8.37;7.63;;;25.60;57.30;;;;;;5057697;28;20470;-63
2022/05/09 10:32:52;;;;;;;8.87;8.23;;;25.20;58.30;;;;;;5061077;28;20440;-63
2022/05/09 10:35:39;;;;;;;7.80;7.10;;;24.90;58.50;;;;;;5044729;28;20560;-63
2022/05/09 10:38:14;;;;;;;10.00;9.10;;;24.90;58.70;;;;;;5063528;28;20439;-63
2022/05/09 10:40:50;;;;;;;7.27;6.77;;;25.20;60.10;;;;;;5051885;28;20442;-63
2022/05/09 10:43:30;;;;;;;8.17;7.57;;;25.40;58.00;;;;;;5063360;28;20431;-64
2022/05/09 10:45:56;;;;;;;7.70;7.20;;;25.20;58.20;;;;;;5057421;28;20526;-63
2022/05/09 10:48:25;;;;;;;6.70;6.30;;;25.10;59.10;;;;;;5057172;28;20444;-64
2022/05/09 10:51:14;;;;;;;7.83;7.23;;;24.80;58.60;;;;;;5063376;28;20206;-63
2022/05/09 10:54:14;;;;;;;6.90;6.40;;;24.70;59.10;;;;;;5052560;28;20803;-64
2022/05/09 10:56:57;;;;;;;6.90;6.40;;;24.40;59.60;;;;;;5065912;28;20482;-63
2022/05/09 10:59:28;;;;;;;6.80;6.30;;;24.40;59.60;;;;;;5048253;28;20450;-63
2022/05/09 11:02:09;;;;;;;7.10;6.60;;;24.80;59.20;;;;;;5053553;28;20449;-63
2022/05/09 11:04:37;;;;;;;6.60;6.20;;;26.20;57.10;;;;;;5056116;28;20549;-64
2022/05/09 11:07:38;;;;;;;6.87;6.37;;;28.00;53.80;;;;;;5057035;28;20438;-62
2022/05/09 11:10:10;;;;;;;7.23;6.60;;;29.20;51.10;;;;;;5059354;28;20473;-64
2022/05/09 11:12:36;;;;;;;7.33;6.63;;;29.10;50.30;;;;;;5057201;28;20442;-63
2022/05/09 11:15:11;;;;;;;7.10;6.47;;;28.50;51.10;;;;;;5056768;28;20815;-62
2022/05/09 11:17:55;;;;;;;6.80;6.20;;;28.90;51.00;;;;;;5068459;28;20180;-62
2022/05/09 11:20:32;;;;;;;8.40;7.70;;;29.80;49.30;;;;;;5055177;28;20443;-62
2022/05/09 11:23:10;;;;;;;9.47;8.73;;;29.40;50.70;;;;;;5058709;28;20441;-63
2022/05/09 11:25:54;;;;;;;8.27;7.57;;;28.30;53.20;;;;;;5061267;28;20956;-63
2022/05/09 11:28:42;;;;;;;7.10;6.60;;;27.90;54.10;;;;;;5052227;28;20763;-63
2022/05/09 11:31:32;;;;;;;7.10;6.40;;;27.00;51.80;;;;;;5059428;28;20474;-62
2022/05/09 11:34:01;;;;;;;6.93;6.33;;;26.40;53.90;;;;;;5061380;28;20726;-63
2022/05/09 11:36:59;;;;;;;6.93;6.20;;;26.40;54.40;;;;;;5054513;28;20529;-63
2022/05/09 11:39:47;;;;;;;7.33;6.73;;;27.30;53.60;;;;;;5057498;28;20495;-63
2022/05/09 11:45:23;;;;;;;6.63;6.03;;;26.60;52.80;;;;;;5058488;28;20579;-63
2022/05/09 11:48:17;;;;;;;7.50;6.83;;;26.10;54.30;;;;;;5059061;28;20447;-63
2022/05/09 11:51:11;;;;;;;7.20;6.70;;;25.80;56.00;;;;;;5053568;28;20549;-63
2022/05/09 11:53:42;;;;;;;7.50;7.00;;;25.90;55.80;;;;;;5052161;28;20443;-63
2022/05/09 11:56:08;;;;;;;6.80;6.20;;;25.50;56.60;;;;;;5060637;28;20449;-63
2022/05/09 11:58:41;;;;;;;7.07;6.47;;;25.30;57.30;;;;;;5055092;28;20936;-63
2022/05/09 12:01:07;;;;;;;7.87;7.27;;;25.10;57.30;;;;;;5061548;28;20952;-63
2022/05/09 12:03:42;;;;;;;7.93;7.20;;;25.10;56.80;;;;;;5058522;28;20475;-63
2022/05/09 12:06:32;;;;;;;7.60;6.90;;;25.00;57.10;;;;;;5059759;28;20851;-64
2022/05/09 12:09:01;;;;;;;6.73;6.23;;;24.90;57.10;;;;;;5053685;28;20446;-63
2022/05/09 12:11:41;;;;;;;6.40;5.90;;;25.00;56.80;;;;;;5049733;28;20496;-63
2022/05/09 12:14:07;;;;;;;6.73;6.23;;;25.10;56.30;;;;;;5065520;28;20465;-63
2022/05/09 12:16:35;;;;;;;6.47;5.93;;;25.40;56.30;;;;;;5049151;28;21264;-63
2022/05/09 12:19:20;;;;;;;6.23;5.73;;;25.50;55.70;;;;;;5050962;28;20544;-63
2022/05/09 12:22:24;;;;;;;6.90;6.30;;;25.40;55.50;;;;;;5054990;28;20815;-63
2022/05/09 12:24:50;;;;;;;6.60;6.13;;;25.40;56.50;;;;;;5049735;28;20520;-63
2022/05/09 12:27:45;;;;;;;6.50;6.00;;;24.90;56.90;;;;;;5053457;28;20568;-63
2022/05/09 12:30:52;;;;;;;6.27;5.87;;;24.70;56.60;;;;;;5052730;28;20233;-63
2022/05/09 12:33:39;;;;;;;6.33;5.83;;;24.70;56.80;;;;;;5054170;28;20436;-62
2022/05/09 12:36:10;;;;;;;6.60;6.07;;;24.70;57.10;;;;;;5052162;28;20865;-63
2022/05/09 12:38:40;;;;;;;6.10;5.60;;;24.80;57.00;;;;;;5068939;28;20839;-63
2022/05/09 12:41:17;;;;;;;6.23;5.73;;;24.90;55.80;;;;;;5063665;28;20431;-63
2022/05/09 12:43:52;;;;;;;6.67;6.27;;;25.00;56.30;;;;;;5049662;28;20530;-63
2022/05/09 12:46:24;;;;;;;6.27;5.70;;;25.20;56.60;;;;;;5049698;28;20501;-63
2022/05/09 12:48:51;;;;;;;6.63;6.13;;;25.20;55.80;;;;;;5053852;28;20858;-63
2022/05/09 12:51:17;;;;;;;6.70;6.20;;;24.90;56.70;;;;;;5058225;28;20512;-63
2022/05/09 12:53:43;;;;;;;6.90;6.30;;;24.80;56.40;;;;;;5056826;28;20420;-64
2022/05/09 12:56:20;;;;;;;6.30;5.80;;;25.00;56.20;;;;;;5057913;28;20455;-62
2022/05/09 12:58:58;;;;;;;6.90;6.33;;;25.20;55.20;;;;;;5050953;28;20205;-62
2022/05/09 13:01:29;;;;;;;6.93;6.40;;;25.00;55.60;;;;;;5055064;28;20444;-62
2022/05/09 13:04:00;;;;;;;6.50;6.10;;;25.30;56.00;;;;;;5059145;28;20446;-63
2022/05/09 13:06:38;;;;;;;7.03;6.53;;;25.20;55.50;;;;;;5048472;28;20448;-62
2022/05/09 13:09:18;;;;;;;6.67;6.07;;;25.20;55.60;;;;;;5062258;28;20439;-62